Time;durP1;ratioP1;P1;durP2;ratioP2;P2;SDS_P1;SDS_P2;PMS_P1;PMS_P2;Temp;Humidity;BMP_temperature;BMP_pressure;BME280_temperature;BME280_humidity;BME280_pressure;Samples;Min_cycle;Max_cycle;Signal;HPM_P1;HPM_P2
2022/08/29 00:02:06;;;;;;;12.00;7.90;;;;;;;22.42;53.84;95448.41;5045943;28;20035;-83
2022/08/29 00:04:32;;;;;;;11.60;8.43;;;;;;;22.44;53.92;95448.97;5047147;28;20028;-83
2022/08/29 00:06:57;;;;;;;13.98;7.68;;;;;;;22.41;53.95;95445.91;5046443;28;20032;-83
2022/08/29 00:09:23;;;;;;;12.00;8.88;;;;;;;22.37;53.91;95442.03;5046809;28;20021;-82
2022/08/29 00:11:48;;;;;;;13.48;8.35;;;;;;;22.34;53.99;95444.16;5045849;28;20029;-82
2022/08/29 00:14:13;;;;;;;12.73;8.52;;;;;;;22.34;53.55;95441.44;5045817;28;20403;-82
2022/08/29 00:16:39;;;;;;;11.13;7.82;;;;;;;22.32;54.29;95437.31;5044720;28;20032;-84
2022/08/29 00:19:05;;;;;;;10.15;7.60;;;;;;;22.30;54.14;95442.19;5046128;28;20025;-83
2022/08/29 00:21:30;;;;;;;13.18;8.38;;;;;;;22.28;54.50;95433.44;5046712;28;20013;-83
2022/08/29 00:23:55;;;;;;;15.40;8.85;;;;;;;22.27;54.38;95438.06;5046034;28;20017;-83
2022/08/29 00:26:21;;;;;;;11.43;8.35;;;;;;;22.19;54.77;95441.22;5047074;28;20400;-83
2022/08/29 00:28:46;;;;;;;10.70;7.80;;;;;;;22.24;54.68;95449.50;5046092;28;20021;-84
2022/08/29 00:31:12;;;;;;;17.33;9.13;;;;;;;22.25;54.73;95450.34;5046997;28;20029;-83
2022/08/29 00:33:37;;;;;;;9.57;8.27;;;;;;;22.20;54.62;95442.88;5046164;28;20491;-84
2022/08/29 00:36:03;;;;;;;9.73;7.85;;;;;;;22.18;54.51;95439.59;5046420;28;20495;-84
2022/08/29 00:38:28;;;;;;;11.68;7.97;;;;;;;22.20;54.75;95445.59;5045849;28;20439;-83
2022/08/29 00:40:55;;;;;;;12.48;7.78;;;;;;;22.18;54.40;95445.06;5046048;28;20041;-83
2022/08/29 00:43:23;;;;;;;13.00;8.18;;;;;;;22.12;54.16;95441.41;5046655;28;20037;-84
2022/08/29 00:46:01;;;;;;;11.82;8.60;;;;;;;22.04;55.59;95445.38;5045968;28;20488;-84
2022/08/29 00:48:26;;;;;;;12.18;7.72;;;;;;;22.01;54.89;95445.06;5046686;28;20427;-84
2022/08/29 00:50:54;;;;;;;11.55;8.55;;;;;;;22.02;55.31;95444.81;5047098;28;20091;-83
2022/08/29 00:53:33;;;;;;;19.50;8.45;;;;;;;21.93;55.12;95438.94;5048667;28;20044;-83
2022/08/29 00:55:58;;;;;;;16.67;8.88;;;;;;;21.88;55.32;95446.25;5032972;28;20051;-84
2022/08/29 00:58:29;;;;;;;11.32;8.82;;;;;;;21.88;55.38;95436.13;5048334;28;20438;-83
2022/08/29 01:00:55;;;;;;;11.35;8.73;;;;;;;21.90;55.62;95438.63;5049680;28;20048;-83
2022/08/29 01:03:21;;;;;;;12.70;8.30;;;;;;;21.88;55.69;95441.59;5049581;28;20399;-83
2022/08/29 01:05:47;;;;;;;16.88;8.98;;;;;;;21.82;55.45;95442.59;5050458;28;20523;-83
2022/08/29 01:08:12;;;;;;;13.52;8.77;;;;;;;21.81;55.33;95446.41;5048515;28;20523;-83
2022/08/29 01:13:24;;;;;;;10.98;8.00;;;;;;;21.72;54.95;95444.06;5049931;28;20040;-82
2022/08/29 01:15:49;;;;;;;14.52;8.07;;;;;;;21.69;55.40;95444.56;5049667;28;20045;-83
2022/08/29 01:18:15;;;;;;;13.52;7.80;;;;;;;21.65;55.38;95446.09;5048646;28;20032;-83
2022/08/29 01:21:12;;;;;;;16.98;8.70;;;;;;;21.60;55.27;95435.94;5031319;28;20025;-84
2022/08/29 01:24:04;;;;;;;11.30;8.20;;;;;;;21.57;55.61;95439.16;5034453;28;20112;-84
2022/08/29 01:26:29;;;;;;;11.23;7.75;;;;;;;21.57;55.55;95441.88;5048400;28;20094;-84
2022/08/29 01:28:55;;;;;;;9.98;7.97;;;;;;;21.53;55.55;95434.44;5031464;28;20017;-84
2022/08/29 01:31:22;;;;;;;13.65;8.05;;;;;;;21.46;56.09;95434.59;5049920;28;20029;-84
2022/08/29 01:33:53;;;;;;;10.25;8.43;;;;;;;21.36;56.62;95433.34;5048967;28;20037;-84
2022/08/29 01:36:40;;;;;;;12.00;8.18;;;;;;;21.44;56.23;95432.13;5050380;28;20103;-84
2022/08/29 01:39:06;;;;;;;10.70;7.72;;;;;;;21.45;56.89;95435.69;5048605;28;20055;-84
2022/08/29 01:41:31;;;;;;;10.00;8.25;;;;;;;21.46;56.32;95440.91;5047691;28;20037;-84
2022/08/29 01:43:57;;;;;;;11.77;7.95;;;;;;;21.46;56.30;95440.06;5049003;28;20036;-84
2022/08/29 01:46:31;;;;;;;12.65;8.50;;;;;;;21.42;56.51;95452.56;5049256;28;20025;-84
2022/08/29 01:48:57;;;;;;;12.55;8.18;;;;;;;21.45;56.09;95446.59;5049463;28;20033;-84
2022/08/29 01:51:23;;;;;;;11.88;8.32;;;;;;;21.43;56.54;95446.84;5048882;28;20040;-84
2022/08/29 01:53:49;;;;;;;12.75;8.55;;;;;;;21.47;56.26;95449.91;5049192;28;20052;-84
2022/08/29 01:56:19;;;;;;;13.05;8.27;;;;;;;21.42;56.26;95449.81;5048760;28;20025;-84
2022/08/29 01:58:46;;;;;;;10.82;8.55;;;;;;;21.36;56.66;95446.19;5048999;28;20047;-84
2022/08/29 02:01:13;;;;;;;12.27;8.32;;;;;;;21.40;56.96;95457.41;5049051;28;20025;-84
2022/08/29 02:03:38;;;;;;;10.30;7.90;;;;;;;21.40;55.88;95451.97;5047749;28;20033;-84
2022/08/29 02:06:04;;;;;;;12.65;8.05;;;;;;;21.36;55.53;95463.38;5048869;28;20036;-84
2022/08/29 02:08:29;;;;;;;11.27;8.65;;;;;;;21.30;56.07;95463.50;5048416;28;20025;-84
2022/08/29 02:10:55;;;;;;;11.73;8.43;;;;;;;21.25;55.69;95469.69;5048880;28;20021;-84
2022/08/29 02:13:23;;;;;;;17.45;7.95;;;;;;;21.21;55.67;95465.81;5048110;28;20086;-84
2022/08/29 02:15:49;;;;;;;13.27;8.23;;;;;;;21.16;56.05;95463.00;5048887;28;20021;-84
2022/08/29 02:18:15;;;;;;;14.90;8.23;;;;;;;21.13;55.49;95464.31;5048283;28;20477;-83
2022/08/29 02:20:40;;;;;;;11.30;7.78;;;;;;;21.09;55.88;95458.50;5048929;28;20028;-84
2022/08/29 02:23:06;;;;;;;12.88;8.32;;;;;;;21.02;56.33;95462.47;5048453;28;20044;-84
2022/08/29 02:25:40;;;;;;;11.00;8.45;;;;;;;21.00;56.28;95468.16;5048566;28;20021;-84
2022/08/29 02:28:06;;;;;;;10.52;8.30;;;;;;;20.96;56.08;95459.63;5048536;28;20032;-84
2022/08/29 02:30:31;;;;;;;10.93;9.50;;;;;;;20.92;56.19;95463.09;5047991;28;20025;-84
2022/08/29 02:32:56;;;;;;;17.35;10.85;;;;;;;20.84;56.32;95451.47;5048496;28;20029;-84
2022/08/29 02:35:22;;;;;;;12.27;9.25;;;;;;;20.76;56.40;95449.13;5048146;28;20025;-83
2022/08/29 02:37:47;;;;;;;13.98;8.77;;;;;;;20.68;56.69;95449.50;5047859;28;20139;-84
2022/08/29 02:40:13;;;;;;;13.95;8.90;;;;;;;20.58;56.99;95459.13;5047688;28;20045;-83
2022/08/29 02:42:38;;;;;;;10.98;8.18;;;;;;;20.50;57.38;95460.31;5048542;28;20037;-83
2022/08/29 02:45:04;;;;;;;16.33;9.25;;;;;;;20.49;57.51;95463.28;5047708;28;20215;-83
2022/08/29 02:47:32;;;;;;;12.50;8.80;;;;;;;20.42;57.57;95466.13;5047941;28;20028;-84
2022/08/29 02:49:58;;;;;;;10.98;8.27;;;;;;;20.41;57.76;95463.66;5047921;28;20373;-84
2022/08/29 02:52:23;;;;;;;11.65;8.30;;;;;;;20.37;57.80;95461.41;5047712;28;20511;-84
2022/08/29 02:54:48;;;;;;;11.85;8.25;;;;;;;20.36;58.25;95473.34;5048382;28;20399;-84
2022/08/29 02:57:14;;;;;;;14.52;8.95;;;;;;;20.34;58.12;95475.50;5047485;28;20029;-84
2022/08/29 02:59:39;;;;;;;14.05;8.60;;;;;;;20.32;57.88;95477.63;5049495;28;20395;-83
2022/08/29 03:02:06;;;;;;;13.23;8.48;;;;;;;20.28;58.21;95479.16;5047335;28;20388;-84
2022/08/29 03:04:31;;;;;;;16.05;8.77;;;;;;;20.19;58.50;95477.88;5048081;28;20025;-84
2022/08/29 03:06:57;;;;;;;12.95;8.80;;;;;;;20.19;58.88;95480.59;5047269;28;20041;-83
2022/08/29 03:09:22;;;;;;;11.18;8.90;;;;;;;20.21;58.81;95481.19;5047306;28;20040;-83
2022/08/29 03:11:51;;;;;;;16.55;9.20;;;;;;;20.19;58.88;95486.03;5048590;28;20044;-83
2022/08/29 03:14:16;;;;;;;19.63;9.50;;;;;;;20.15;59.08;95482.97;5045955;28;20095;-83
2022/08/29 03:16:42;;;;;;;12.52;8.40;;;;;;;20.16;58.90;95479.19;5047911;28;20036;-82
2022/08/29 03:19:07;;;;;;;14.98;9.25;;;;;;;20.13;59.01;95480.47;5046839;28;20021;-83
2022/08/29 03:21:33;;;;;;;16.42;9.05;;;;;;;20.15;58.65;95482.97;5047886;28;20048;-83
2022/08/29 03:23:58;;;;;;;13.38;8.05;;;;;;;20.13;58.69;95477.75;5047154;28;20028;-84
2022/08/29 03:26:24;;;;;;;15.73;9.00;;;;;;;20.17;59.36;95480.00;5047479;28;20021;-84
2022/08/29 03:28:49;;;;;;;13.63;8.32;;;;;;;20.19;59.15;95484.16;5047397;28;20021;-83
2022/08/29 03:31:15;;;;;;;16.05;8.55;;;;;;;20.19;58.47;95491.47;5047197;28;20480;-84
2022/08/29 03:33:41;;;;;;;15.18;8.15;;;;;;;20.15;58.87;95493.03;5046843;28;20032;-83
2022/08/29 03:36:08;;;;;;;10.13;7.85;;;;;;;20.11;58.89;95498.94;5046422;28;20033;-83
2022/08/29 03:38:34;;;;;;;10.75;8.52;;;;;;;20.04;59.30;95503.66;5047516;28;20514;-83
2022/08/29 03:41:00;;;;;;;12.85;9.70;;;;;;;20.04;59.46;95492.78;5046506;28;20064;-84
2022/08/29 03:43:25;;;;;;;13.15;8.77;;;;;;;20.09;59.04;95501.06;5047054;28;20029;-83
2022/08/29 03:45:51;;;;;;;16.38;8.60;;;;;;;20.14;59.02;95503.09;5046291;28;20028;-85
2022/08/29 03:48:17;;;;;;;13.65;9.32;;;;;;;20.17;58.67;95507.25;5046680;28;20028;-83
2022/08/29 03:50:42;;;;;;;14.52;9.23;;;;;;;20.15;58.37;95506.63;5046590;28;20021;-83
2022/08/29 03:53:07;;;;;;;11.15;8.40;;;;;;;20.09;58.65;95511.13;5045996;28;20526;-83
2022/08/29 03:55:33;;;;;;;16.10;8.88;;;;;;;20.09;58.58;95506.50;5047056;28;20704;-83
2022/08/29 03:57:58;;;;;;;13.73;9.18;;;;;;;20.04;58.86;95511.81;5048150;28;20017;-84
2022/08/29 04:00:24;;;;;;;12.77;8.60;;;;;;;20.00;59.24;95508.75;5052528;28;20021;-82
2022/08/29 04:02:52;;;;;;;12.60;8.82;;;;;;;20.06;58.94;95512.44;5047535;28;20512;-83
2022/08/29 04:05:18;;;;;;;15.70;9.02;;;;;;;20.07;58.58;95514.06;5046254;28;20559;-83
2022/08/29 04:07:51;;;;;;;17.13;9.50;;;;;;;19.99;58.84;95506.25;5046496;28;20021;-83
2022/08/29 04:10:28;;;;;;;10.73;8.82;;;;;;;19.96;58.66;95510.25;5046232;28;20037;-83
2022/08/29 04:12:53;;;;;;;15.52;8.98;;;;;;;19.92;58.82;95508.25;5046413;28;20462;-83
2022/08/29 04:15:19;;;;;;;10.85;8.98;;;;;;;19.93;59.01;95512.63;5045584;28;20017;-84
2022/08/29 04:17:44;;;;;;;13.57;9.20;;;;;;;19.93;58.98;95521.63;5049855;28;20032;-84
2022/08/29 04:20:11;;;;;;;11.27;9.25;;;;;;;19.89;59.21;95510.34;5045813;28;20392;-84
2022/08/29 04:22:37;;;;;;;16.63;9.65;;;;;;;19.93;58.87;95507.16;5046774;28;20029;-84
2022/08/29 04:25:05;;;;;;;14.57;9.98;;;;;;;19.89;58.71;95510.34;5046560;28;20408;-84
2022/08/29 04:27:30;;;;;;;11.57;8.93;;;;;;;19.95;58.75;95521.38;5050063;28;20415;-83
2022/08/29 04:29:56;;;;;;;13.32;9.70;;;;;;;19.96;58.65;95518.41;5050250;28;20565;-83
2022/08/29 04:32:21;;;;;;;15.07;10.05;;;;;;;20.00;58.85;95524.22;5050242;28;20025;-82
2022/08/29 04:34:47;;;;;;;12.02;8.57;;;;;;;20.08;58.74;95528.53;5051892;28;20044;-84
2022/08/29 04:37:12;;;;;;;13.43;9.23;;;;;;;20.13;58.62;95534.91;5050216;28;20050;-84
2022/08/29 04:39:38;;;;;;;18.75;9.73;;;;;;;20.15;58.54;95536.59;5050428;28;20052;-83
2022/08/29 04:42:03;;;;;;;13.77;9.27;;;;;;;20.15;58.57;95534.72;5049412;28;20094;-83
2022/08/29 04:44:28;;;;;;;19.38;10.35;;;;;;;20.22;58.39;95534.56;5050100;28;20021;-83
2022/08/29 04:46:54;;;;;;;15.50;9.05;;;;;;;20.29;58.26;95537.19;5049615;28;20025;-83
2022/08/29 04:49:20;;;;;;;14.30;10.10;;;;;;;20.34;58.18;95548.19;5049915;28;20033;-84
2022/08/29 04:51:45;;;;;;;19.17;9.88;;;;;;;20.41;57.93;95545.38;5049814;28;20482;-84
2022/08/29 04:54:11;;;;;;;19.38;10.25;;;;;;;20.49;57.75;95553.19;5049590;28;20539;-84
2022/08/29 04:56:37;;;;;;;13.27;9.52;;;;;;;20.54;57.94;95556.00;5050145;28;20025;-83
2022/08/29 04:59:02;;;;;;;14.88;9.63;;;;;;;20.55;57.83;95549.50;5049186;28;20024;-84
2022/08/29 05:01:28;;;;;;;14.93;10.00;;;;;;;20.55;57.75;95552.22;5049667;28;20428;-82
2022/08/29 05:03:54;;;;;;;15.55;10.23;;;;;;;20.63;57.85;95551.84;5048734;28;20056;-83
2022/08/29 05:06:20;;;;;;;18.40;9.98;;;;;;;20.67;57.58;95554.94;5049579;28;20639;-83
2022/08/29 05:08:46;;;;;;;14.82;9.88;;;;;;;20.78;57.34;95555.97;5048682;28;20025;-83
2022/08/29 05:11:16;;;;;;;16.67;9.95;;;;;;;20.88;57.43;95567.13;5049827;28;20112;-83
2022/08/29 05:13:42;;;;;;;13.75;10.10;;;;;;;21.01;57.31;95569.88;5049261;28;20071;-84
2022/08/29 05:16:08;;;;;;;14.07;9.43;;;;;;;21.10;57.36;95569.22;5048919;28;20027;-84
2022/08/29 05:18:34;;;;;;;17.13;9.93;;;;;;;21.13;57.41;95573.38;5049630;28;20029;-85
2022/08/29 05:20:59;;;;;;;15.95;9.93;;;;;;;21.17;57.76;95573.72;5049151;28;20028;-84
2022/08/29 05:23:25;;;;;;;16.13;10.35;;;;;;;21.07;58.29;95577.88;5050108;28;20033;-83
2022/08/29 05:25:57;;;;;;;15.75;10.23;;;;;;;21.04;58.01;95575.66;5048921;28;20032;-84
2022/08/29 05:28:22;;;;;;;15.48;10.20;;;;;;;21.05;57.51;95571.03;5050008;28;20029;-84
2022/08/29 05:30:48;;;;;;;12.65;10.23;;;;;;;21.14;57.66;95571.47;5049189;28;20071;-84
2022/08/29 05:33:13;;;;;;;15.63;10.15;;;;;;;21.28;57.70;95575.56;5049689;28;20466;-84
2022/08/29 05:35:39;;;;;;;17.75;11.40;;;;;;;21.38;57.40;95574.97;5049252;28;20480;-84
2022/08/29 05:38:04;;;;;;;16.05;10.48;;;;;;;21.50;57.29;95569.47;5049696;28;20037;-84
2022/08/29 05:40:30;;;;;;;15.10;10.38;;;;;;;21.55;57.02;95577.75;5055137;28;20032;-84
2022/08/29 05:42:55;;;;;;;16.02;10.23;;;;;;;21.41;56.95;95570.94;5054386;28;20021;-83
2022/08/29 05:45:21;;;;;;;13.82;10.27;;;;;;;21.53;56.97;95582.63;5055817;28;20100;-83
2022/08/29 05:47:46;;;;;;;18.13;10.07;;;;;;;21.48;57.52;95590.72;5054005;28;20080;-83
2022/08/29 05:50:15;;;;;;;19.30;10.52;;;;;;;21.55;57.44;95585.94;5055986;28;20017;-84
2022/08/29 05:52:41;;;;;;;19.08;10.13;;;;;;;21.63;57.31;95592.06;5054089;28;20040;-83
2022/08/29 05:55:06;;;;;;;16.75;10.18;;;;;;;21.66;57.17;95583.41;5054081;28;20526;-85
2022/08/29 05:57:32;;;;;;;18.08;10.57;;;;;;;21.63;58.10;95587.47;5056360;28;20411;-85
2022/08/29 05:59:57;;;;;;;15.48;11.23;;;;;;;21.60;57.59;95590.66;5051242;28;20443;-84
2022/08/29 06:02:23;;;;;;;15.73;10.10;;;;;;;21.73;57.19;95589.56;5049855;28;20025;-84
2022/08/29 06:04:49;;;;;;;17.92;10.75;;;;;;;21.89;56.61;95595.31;5047951;28;20017;-84
2022/08/29 06:07:14;;;;;;;15.50;10.02;;;;;;;22.09;55.49;95590.22;5048792;28;20029;-84
2022/08/29 06:09:40;;;;;;;16.02;9.93;;;;;;;22.19;55.08;95588.72;5048272;28;20021;-83
2022/08/29 06:12:08;;;;;;;15.57;10.18;;;;;;;22.31;54.24;95591.38;5048180;28;20021;-83
2022/08/29 06:14:34;;;;;;;18.88;10.30;;;;;;;22.38;54.45;95588.47;5048124;28;20033;-85
2022/08/29 06:17:00;;;;;;;16.48;10.02;;;;;;;22.42;54.01;95585.00;5046306;28;20036;-84
2022/08/29 06:19:27;;;;;;;16.35;9.43;;;;;;;22.43;54.06;95588.56;5048513;28;20564;-84
2022/08/29 06:21:54;;;;;;;11.68;8.73;;;;;;;22.52;53.66;95581.59;5047245;28;20036;-84
2022/08/29 06:24:19;;;;;;;13.48;8.90;;;;;;;22.70;52.76;95588.72;5048733;28;20041;-84
2022/08/29 06:26:45;;;;;;;16.02;8.15;;;;;;;22.70;52.82;95587.88;5047845;28;20048;-84
2022/08/29 06:29:10;;;;;;;17.60;8.70;;;;;;;22.93;52.61;95572.38;5048058;28;20463;-84
2022/08/29 06:31:36;;;;;;;12.25;8.35;;;;;;;23.07;51.93;95578.31;5047588;28;20021;-83
2022/08/29 06:34:03;;;;;;;20.55;9.10;;;;;;;23.17;51.94;95578.44;5047359;28;20029;-87
2022/08/29 06:36:29;;;;;;;21.52;9.52;;;;;;;23.13;51.75;95579.19;5049089;28;20021;-84
2022/08/29 06:38:55;;;;;;;31.20;9.82;;;;;;;23.14;51.60;95578.94;5046890;28;20094;-83
2022/08/29 06:41:20;;;;;;;17.83;8.30;;;;;;;23.31;50.87;95578.84;5047986;28;20036;-83
2022/08/29 06:43:46;;;;;;;15.60;8.73;;;;;;;23.51;50.46;95580.22;5046840;28;20025;-84
2022/08/29 06:46:38;;;;;;;15.73;8.82;;;;;;;23.69;50.48;95578.22;5047461;28;20024;-83
2022/08/29 06:49:06;;;;;;;10.90;7.93;;;;;;;23.76;49.59;95584.34;5046394;28;20124;-83
2022/08/29 06:51:33;;;;;;;12.02;8.43;;;;;;;23.81;50.12;95578.09;5047314;28;20104;-84
2022/08/29 06:54:03;;;;;;;15.63;8.77;;;;;;;23.78;49.87;95578.59;5029843;28;20035;-83
2022/08/29 06:56:29;;;;;;;21.02;9.50;;;;;;;23.94;50.41;95593.28;5046840;28;20032;-84
2022/08/29 06:58:54;;;;;;;17.58;8.25;;;;;;;24.03;50.79;95586.25;5047644;28;20033;-83
2022/08/29 07:01:20;;;;;;;12.52;8.45;;;;;;;24.28;50.88;95590.31;5046493;28;20036;-84
2022/08/29 07:03:45;;;;;;;15.82;9.38;;;;;;;24.41;49.83;95591.78;5047020;28;20033;-84
2022/08/29 07:06:11;;;;;;;16.13;8.40;;;;;;;24.36;48.94;95590.94;5046772;28;20025;-84
2022/08/29 07:08:36;;;;;;;11.82;8.48;;;;;;;24.46;49.42;95593.75;5047068;28;20503;-84
2022/08/29 07:11:02;;;;;;;16.02;8.50;;;;;;;24.31;50.14;95589.78;5047222;28;20021;-85
2022/08/29 07:13:28;;;;;;;18.13;8.98;;;;;;;24.39;49.75;95584.94;5046074;28;20050;-84
2022/08/29 07:15:53;;;;;;;17.45;7.78;;;;;;;24.31;49.26;95591.72;5047278;28;20025;-83
2022/08/29 07:18:19;;;;;;;12.57;8.48;;;;;;;24.15;50.11;95586.09;5045800;28;20427;-83
2022/08/29 07:20:44;;;;;;;11.68;7.90;;;;;;;24.07;50.97;95587.34;5047323;28;20017;-84
2022/08/29 07:23:09;;;;;;;10.60;8.07;;;;;;;24.00;50.76;95586.75;5046170;28;20033;-84
2022/08/29 07:25:35;;;;;;;11.90;7.65;;;;;;;24.08;50.72;95589.00;5046752;28;20025;-83
2022/08/29 07:28:01;;;;;;;10.27;7.85;;;;;;;24.10;51.82;95590.69;5046438;28;20025;-83
2022/08/29 07:30:26;;;;;;;10.45;8.00;;;;;;;24.04;51.95;95593.34;5046162;28;20746;-84
2022/08/29 07:32:52;;;;;;;11.52;8.30;;;;;;;24.14;51.70;95594.53;5048580;28;20045;-84
2022/08/29 07:35:17;;;;;;;12.73;7.70;;;;;;;24.24;52.12;95602.91;5045744;28;20029;-83
2022/08/29 07:37:43;;;;;;;12.90;7.88;;;;;;;24.29;51.72;95600.19;5047037;28;20064;-83
2022/08/29 07:40:12;;;;;;;14.57;7.68;;;;;;;24.13;50.79;95606.59;5045972;28;20385;-83
2022/08/29 07:42:37;;;;;;;14.88;8.80;;;;;;;24.18;50.80;95603.94;5046395;28;20036;-83
2022/08/29 07:45:07;;;;;;;12.13;7.55;;;;;;;24.39;50.17;95599.44;5045994;28;20025;-84
2022/08/29 07:47:33;;;;;;;13.20;7.32;;;;;;;24.06;51.40;95595.84;5046418;28;20025;-83
2022/08/29 07:50:00;;;;;;;20.98;8.82;;;;;;;24.00;51.85;95602.34;5046509;28;20040;-83
2022/08/29 07:52:28;;;;;;;12.77;8.40;;;;;;;24.10;51.63;95598.91;5045631;28;20017;-83
2022/08/29 07:54:54;;;;;;;14.15;8.18;;;;;;;24.37;50.24;95600.78;5046516;28;20094;-83
2022/08/29 07:57:20;;;;;;;15.32;7.55;;;;;;;24.45;50.40;95597.56;5045446;28;20017;-84
2022/08/29 07:59:45;;;;;;;13.05;8.30;;;;;;;24.36;50.20;95599.97;5045930;28;20021;-84
2022/08/29 08:02:11;;;;;;;20.45;8.35;;;;;;;24.64;50.28;95592.50;5045704;28;20502;-83
2022/08/29 08:04:36;;;;;;;11.80;7.95;;;;;;;24.53;50.09;95582.56;5046169;28;20399;-83
2022/08/29 08:07:02;;;;;;;10.80;7.70;;;;;;;24.59;50.32;95584.25;5046012;28;20466;-83
2022/08/29 08:09:27;;;;;;;11.27;7.78;;;;;;;24.53;49.85;95577.91;5045729;28;20407;-83
2022/08/29 08:11:53;;;;;;;13.23;7.47;;;;;;;24.63;50.13;95577.16;5046365;28;20032;-84
2022/08/29 08:14:18;;;;;;;13.30;7.70;;;;;;;24.51;50.40;95573.75;5045365;28;20032;-83
2022/08/29 08:16:44;;;;;;;17.27;8.50;;;;;;;24.60;50.03;95577.66;5046133;28;20029;-83
2022/08/29 08:19:09;;;;;;;11.40;8.07;;;;;;;24.79;49.83;95585.47;5045249;28;20048;-83
2022/08/29 08:21:35;;;;;;;21.10;8.23;;;;;;;24.97;49.99;95587.00;5046028;28;20469;-83
2022/08/29 08:24:02;;;;;;;17.45;8.10;;;;;;;25.34;49.30;95578.94;5045594;28;20036;-83
2022/08/29 08:26:28;;;;;;;11.27;8.23;;;;;;;25.42;49.89;95579.22;5045557;28;20415;-83
2022/08/29 08:28:54;;;;;;;12.63;7.60;;;;;;;25.51;49.13;95565.81;5045991;28;20029;-84
2022/08/29 08:31:19;;;;;;;15.32;7.80;;;;;;;25.38;48.02;95569.06;5045339;28;20067;-83
2022/08/29 08:33:45;;;;;;;13.27;7.45;;;;;;;25.23;47.89;95573.38;5045842;28;20561;-83
2022/08/29 08:36:28;;;;;;;14.07;7.55;;;;;;;25.34;47.77;95573.44;5045188;28;20032;-83
2022/08/29 08:38:54;;;;;;;13.55;7.32;;;;;;;25.29;47.68;95585.22;5045712;28;20056;-84
2022/08/29 08:41:25;;;;;;;12.93;7.40;;;;;;;25.31;46.90;95574.81;5045335;28;20052;-84
2022/08/29 08:43:54;;;;;;;14.35;7.47;;;;;;;25.27;46.78;95573.69;5045235;28;20040;-83
2022/08/29 08:46:46;;;;;;;15.95;7.55;;;;;;;25.22;47.64;95570.91;5045764;28;20528;-84
2022/08/29 08:49:18;;;;;;;11.68;7.45;;;;;;;25.12;47.26;95567.03;5044670;28;20041;-84
2022/08/29 08:51:49;;;;;;;11.75;7.10;;;;;;;25.13;47.31;95574.19;5028518;28;20055;-83
2022/08/29 08:54:19;;;;;;;11.00;7.55;;;;;;;25.14;47.26;95564.84;5043634;28;20044;-83
2022/08/29 08:56:46;;;;;;;12.00;7.40;;;;;;;25.39;47.46;95567.97;5027546;28;20037;-83
2022/08/29 08:59:14;;;;;;;12.98;7.80;;;;;;;25.64;48.06;95569.16;5027660;28;20473;-83
2022/08/29 09:01:59;;;;;;;10.13;7.35;;;;;;;25.52;47.06;95563.91;5044984;28;20028;-83
2022/08/29 09:04:31;;;;;;;9.57;7.82;;;;;;;25.71;47.42;95564.25;5044894;28;20066;-84
2022/08/29 09:07:14;;;;;;;14.98;8.30;;;;;;;25.54;47.04;95564.44;5045002;28;20039;-83
2022/08/29 09:10:17;;;;;;;15.90;8.07;;;;;;;25.41;47.69;95558.38;5045611;28;20564;-84
2022/08/29 09:12:52;;;;;;;16.70;8.20;;;;;;;25.57;47.76;95558.41;5049035;28;20071;-83
2022/08/29 09:15:27;;;;;;;15.88;8.27;;;;;;;25.62;47.97;95561.19;5047534;28;20025;-84
2022/08/29 09:18:18;;;;;;;13.40;7.95;;;;;;;25.62;47.05;95561.19;5049259;28;20021;-83
2022/08/29 09:20:43;;;;;;;12.07;7.47;;;;;;;25.50;48.04;95564.16;5049095;28;20063;-83
2022/08/29 09:23:17;;;;;;;18.38;8.32;;;;;;;25.40;48.17;95548.50;5049066;28;20021;-83
2022/08/29 09:25:43;;;;;;;10.60;7.80;;;;;;;25.59;47.50;95552.63;5050033;28;20460;-83
2022/08/29 09:28:08;;;;;;;11.35;7.32;;;;;;;25.61;46.93;95551.28;5048682;28;20036;-83
2022/08/29 09:30:35;;;;;;;12.98;7.88;;;;;;;25.61;47.75;95544.97;5049395;28;20039;-83
2022/08/29 09:33:06;;;;;;;13.75;7.43;;;;;;;25.63;47.55;95540.88;5048343;28;20071;-83
2022/08/29 09:35:39;;;;;;;10.98;7.78;;;;;;;25.72;47.53;95543.94;5049061;28;20036;-85
2022/08/29 09:38:16;;;;;;;15.80;8.15;;;;;;;25.84;48.39;95546.44;5048507;28;20659;-84
2022/08/29 09:40:48;;;;;;;12.15;7.38;;;;;;;25.89;47.33;95545.59;5048622;28;20037;-84
2022/08/29 09:43:19;;;;;;;10.52;7.82;;;;;;;25.83;46.69;95542.00;5049495;28;20033;-83
2022/08/29 09:46:04;;;;;;;11.40;7.93;;;;;;;25.86;46.97;95530.47;5048312;28;20115;-83
2022/08/29 09:48:30;;;;;;;12.63;8.55;;;;;;;25.64;46.96;95527.97;5048953;28;20025;-83
2022/08/29 09:51:14;;;;;;;13.65;8.98;;;;;;;25.77;47.26;95527.47;5047054;28;20411;-85
2022/08/29 09:53:40;;;;;;;14.13;8.55;;;;;;;25.97;47.17;95525.81;5047925;28;20036;-84
2022/08/29 09:56:07;;;;;;;14.35;8.27;;;;;;;26.09;46.55;95527.47;5049358;28;20021;-83
2022/08/29 09:58:37;;;;;;;11.73;7.70;;;;;;;26.21;45.98;95525.28;5046822;28;20028;-84
2022/08/29 10:01:10;;;;;;;11.73;8.05;;;;;;;26.21;45.40;95522.53;5048893;28;20400;-84
2022/08/29 10:04:02;;;;;;;13.73;7.60;;;;;;;26.21;45.62;95519.78;5031119;28;20104;-84
2022/08/29 10:06:33;;;;;;;15.13;7.80;;;;;;;26.23;45.55;95522.28;5045748;28;20036;-83
2022/08/29 10:09:05;;;;;;;20.60;8.07;;;;;;;26.14;46.39;95519.22;5049014;28;20040;-83
2022/08/29 10:11:52;;;;;;;11.93;7.32;;;;;;;26.15;45.57;95516.22;5048154;28;20658;-83
2022/08/29 10:14:36;;;;;;;10.98;7.57;;;;;;;26.33;47.22;95515.94;5046835;28;20049;-83
2022/08/29 10:20:16;;;;;;;12.45;7.47;;;;;;;26.13;45.24;95501.09;5046713;28;20079;-84
2022/08/29 10:22:43;;;;;;;14.80;7.93;;;;;;;26.23;45.61;95498.34;5046872;28;20477;-83
2022/08/29 10:25:19;;;;;;;15.05;8.40;;;;;;;26.36;46.11;95493.44;5046000;28;20029;-84
2022/08/29 10:28:02;;;;;;;13.93;7.82;;;;;;;26.41;45.11;95491.47;5047847;28;20024;-83
2022/08/29 10:30:31;;;;;;;11.88;8.27;;;;;;;26.42;45.99;95481.31;5047109;28;20056;-83
2022/08/29 10:33:22;;;;;;;11.82;8.02;;;;;;;26.46;46.21;95476.06;5029920;28;20531;-84
2022/08/29 10:36:11;;;;;;;14.80;7.75;;;;;;;26.54;45.11;95468.09;5047247;28;20037;-84
2022/08/29 10:38:47;;;;;;;12.55;6.82;;;;;;;26.70;44.07;95470.78;5031388;28;20434;-84
2022/08/29 10:41:28;;;;;;;16.63;7.32;;;;;;;26.74;44.02;95462.81;5029602;28;20032;-83
2022/08/29 10:44:16;;;;;;;10.77;7.15;;;;;;;27.08;45.24;95455.81;5047871;28;20461;-82
2022/08/29 10:46:41;;;;;;;10.55;7.32;;;;;;;27.28;44.63;95452.13;5029782;28;20083;-83
2022/08/29 10:49:36;;;;;;;17.58;7.50;;;;;;;27.54;44.95;95449.22;5047152;28;20057;-83
2022/08/29 10:52:34;;;;;;;19.80;7.78;;;;;;;27.63;42.90;95446.69;5047589;28;20092;-83
2022/08/29 10:55:25;;;;;;;15.73;7.78;;;;;;;27.53;44.34;95447.56;5031399;28;20024;-83
2022/08/29 10:58:16;;;;;;;14.00;8.30;;;;;;;27.66;43.32;95451.63;5047633;28;20036;-83
2022/08/29 11:00:42;;;;;;;14.43;7.97;;;;;;;27.62;43.17;95448.59;5047644;28;20065;-83
2022/08/29 11:03:34;;;;;;;13.65;7.95;;;;;;;27.52;45.12;95451.41;5047043;28;20052;-84
2022/08/29 11:06:05;;;;;;;;;;;;;;;27.33;44.15;95448.50;5048063;28;20435;-83
2022/08/29 11:08:53;;;;;;;16.55;8.43;;;;;;;27.17;45.10;95439.53;5045400;28;20004;-84
2022/08/29 11:11:19;;;;;;;15.52;8.02;;;;;;;27.03;44.91;95443.75;5046319;28;20029;-84
2022/08/29 11:14:14;;;;;;;13.50;7.88;;;;;;;27.26;45.13;95441.41;5046338;28;20565;-84
2022/08/29 11:16:46;;;;;;;14.50;7.60;;;;;;;27.12;43.97;95432.94;5045032;28;20040;-84
2022/08/29 11:19:23;;;;;;;15.13;7.15;;;;;;;27.08;42.81;95436.56;5045760;28;20460;-84
2022/08/29 11:21:58;;;;;;;14.23;7.82;;;;;;;27.10;43.16;95431.59;5046518;28;20455;-84
2022/08/29 11:24:25;;;;;;;8.90;7.30;;;;;;;27.03;42.11;95438.25;5029012;28;20029;-84
2022/08/29 11:27:30;;;;;;;15.13;7.38;;;;;;;27.03;43.03;95429.16;5046177;28;20100;-84
2022/08/29 11:29:56;;;;;;;11.57;6.68;;;;;;;26.96;43.34;95423.91;5046280;28;20041;-84
2022/08/29 11:33:14;;;;;;;13.27;7.28;;;;;;;26.97;43.95;95417.28;5046535;28;20037;-84
2022/08/29 11:36:08;;;;;;;18.52;6.63;;;;;;;26.99;43.75;95414.25;5044764;28;20670;-84
2022/08/29 11:38:58;;;;;;;11.13;6.88;;;;;;;27.01;44.19;95409.34;5044728;28;20048;-84
2022/08/29 11:41:39;;;;;;;11.52;6.95;;;;;;;27.09;44.04;95400.50;5045742;28;20060;-84